Terminal Aerodrome Forecast
Issued by NWS

Home | Current Version | Previous Version | Text Only | Print | Product List | Glossary On
Versions: 1 2 3 4 5 6 7 8 9 10 11 12 13 14 15
918
FTUS42 KMLB 191401 AAA
TAFSFB
TAF AMD
KSFB 191401Z 1914/2012 33007KT P6SM BKN007
     FM191500 31006KT P6SM SCT010 BKN025
     FM191800 32010KT P6SM SCT030
     FM200100 06004KT P6SM SKC=

USA.gov is the U.S. government's official web portal to all federal, state and local government web resources and services.